Time;durP1;ratioP1;P1;durP2;ratioP2;P2;SDS_P1;SDS_P2;PMS_P1;PMS_P2;Temp;Humidity;BMP_temperature;BMP_pressure;BME280_temperature;BME280_humidity;BME280_pressure;Samples;Min_cycle;Max_cycle;Signal;HPM_P1;HPM_P2
2022/08/17 00:01:55;;;;;;;8.05;5.82;;;;;;;17.20;68.31;93223.19;5107261;28;20248;-62
2022/08/17 00:04:21;;;;;;;6.90;5.55;;;;;;;17.04;69.02;93224.91;5094097;28;20097;-62
2022/08/17 00:06:47;;;;;;;7.22;4.75;;;;;;;17.04;69.06;93231.22;5112739;28;20032;-62
2022/08/17 00:09:12;;;;;;;8.15;5.22;;;;;;;17.14;69.22;93220.00;5112357;28;20544;-62
2022/08/17 00:11:40;;;;;;;9.38;4.82;;;;;;;17.24;68.53;93226.97;5111898;28;20015;-63
2022/08/17 00:14:12;;;;;;;8.25;5.43;;;;;;;17.25;68.10;93227.72;5108839;28;20092;-63
2022/08/17 00:16:43;;;;;;;8.07;5.07;;;;;;;17.03;68.56;93229.03;5090929;28;20588;-63
2022/08/17 00:19:11;;;;;;;5.55;4.38;;;;;;;16.96;69.07;93224.34;5091893;28;20016;-63
2022/08/17 00:21:40;;;;;;;6.97;5.28;;;;;;;16.82;68.78;93215.06;5092061;28;20024;-63
2022/08/17 00:24:06;;;;;;;;;;;;;;;16.88;68.78;93224.56;5092579;28;20031;-62
2022/08/17 00:26:31;;;;;;;8.93;5.70;;;;;;;16.65;69.35;93224.41;5091713;28;20448;-61
2022/08/17 00:28:56;;;;;;;8.68;5.13;;;;;;;16.76;68.63;93231.38;5091916;28;20024;-62
2022/08/17 00:31:22;;;;;;;6.00;5.00;;;;;;;16.54;69.21;93231.34;5091879;28;20385;-62
2022/08/17 00:33:49;;;;;;;8.45;5.00;;;;;;;16.51;69.54;93229.00;5091716;28;20553;-62
2022/08/17 00:36:15;;;;;;;7.65;5.70;;;;;;;16.57;69.55;93230.13;5091476;28;20024;-62
2022/08/17 00:38:41;;;;;;;7.25;5.13;;;;;;;16.69;68.51;93230.25;5091382;28;20512;-62
2022/08/17 00:41:13;;;;;;;7.88;4.65;;;;;;;16.57;69.00;93229.41;5098108;28;20039;-63
2022/08/17 00:43:42;;;;;;;6.60;4.95;;;;;;;16.43;69.68;93223.59;5097929;28;20012;-63
2022/08/17 00:46:13;;;;;;;8.40;5.38;;;;;;;16.54;69.04;93219.47;5099972;28;20081;-63
2022/08/17 00:48:38;;;;;;;6.97;5.00;;;;;;;16.45;69.00;93226.50;5111613;28;20576;-63
2022/08/17 00:51:14;;;;;;;6.07;4.72;;;;;;;16.55;68.61;93224.44;5108598;28;20102;-60
2022/08/17 00:53:43;;;;;;;8.43;4.65;;;;;;;16.45;68.91;93220.94;5091382;28;20077;-60
2022/08/17 00:56:11;;;;;;;6.43;4.85;;;;;;;16.50;68.83;93225.47;5100081;28;20430;-60
2022/08/17 00:58:37;;;;;;;6.72;5.60;;;;;;;16.35;69.76;93231.38;5110566;28;20419;-60
2022/08/17 01:01:05;;;;;;;5.88;4.78;;;;;;;16.23;69.15;93205.47;5103718;28;20035;-60
2022/08/17 01:03:30;;;;;;;6.57;5.38;;;;;;;16.30;69.16;93226.84;5090891;28;20032;-60
2022/08/17 01:05:58;;;;;;;8.25;5.65;;;;;;;16.13;69.64;93227.06;5090043;28;20028;-60
2022/08/17 01:08:27;;;;;;;6.40;5.18;;;;;;;16.02;69.97;93226.94;5090146;28;20386;-60
2022/08/17 01:10:55;;;;;;;6.27;5.27;;;;;;;16.10;70.07;93222.66;5090767;28;20028;-60
2022/08/17 01:13:21;;;;;;;6.82;5.18;;;;;;;16.20;69.75;93228.22;5091056;28;20457;-60
2022/08/17 01:16:00;;;;;;;6.07;5.32;;;;;;;16.22;69.24;93226.28;5090727;28;20036;-60
2022/08/17 01:18:25;;;;;;;8.05;5.65;;;;;;;16.16;69.67;93228.66;5089618;28;20111;-60
2022/08/17 01:20:53;;;;;;;7.13;5.82;;;;;;;16.15;69.66;93224.41;5090756;28;20032;-60
2022/08/17 01:23:21;;;;;;;6.25;5.15;;;;;;;16.24;68.75;93217.34;5090949;28;20020;-60
2022/08/17 01:25:52;;;;;;;8.13;6.40;;;;;;;16.27;69.09;93222.47;5089488;28;20718;-59
2022/08/17 01:28:19;;;;;;;10.30;6.00;;;;;;;16.26;69.53;93218.22;5089061;28;20024;-60
2022/08/17 01:30:45;;;;;;;15.57;5.50;;;;;;;16.20;69.87;93215.00;5090534;28;20505;-59
2022/08/17 01:33:10;;;;;;;8.80;5.68;;;;;;;16.18;69.94;93214.84;5090512;28;20016;-59
2022/08/17 01:35:38;;;;;;;7.85;5.53;;;;;;;16.23;69.16;93221.44;5090864;28;20024;-59
2022/08/17 01:38:05;;;;;;;8.57;5.60;;;;;;;16.15;68.67;93212.53;5090605;28;20016;-59
2022/08/17 01:40:51;;;;;;;7.03;4.93;;;;;;;16.07;68.65;93209.91;5090135;28;20081;-59
2022/08/17 01:43:21;;;;;;;5.78;4.95;;;;;;;16.05;68.15;93217.41;5090369;28;20035;-62
2022/08/17 01:45:48;;;;;;;9.35;5.00;;;;;;;15.93;68.50;93217.28;5089335;28;20016;-65
2022/08/17 01:48:15;;;;;;;5.88;5.13;;;;;;;15.89;68.51;93208.66;5090698;28;20406;-60
2022/08/17 01:50:43;;;;;;;6.95;4.95;;;;;;;15.80;68.81;93226.09;5090676;28;20028;-63
2022/08/17 01:53:20;;;;;;;7.40;5.35;;;;;;;15.87;68.80;93214.78;5105418;28;20427;-63
2022/08/17 01:55:52;;;;;;;6.25;5.15;;;;;;;15.74;69.25;93222.88;5109602;28;20031;-64
2022/08/17 01:58:18;;;;;;;5.78;5.18;;;;;;;15.74;69.40;93217.31;5110592;28;20496;-64
2022/08/17 02:00:46;;;;;;;7.22;5.75;;;;;;;15.68;69.33;93217.59;5105737;28;20019;-64
2022/08/17 02:03:12;;;;;;;6.07;4.85;;;;;;;15.59;69.21;93214.84;5090044;28;20040;-63
2022/08/17 02:05:39;;;;;;;6.05;4.82;;;;;;;15.55;69.40;93212.50;5090153;28;20042;-63
2022/08/17 02:08:06;;;;;;;6.78;5.68;;;;;;;15.48;69.56;93213.38;5090247;28;20563;-63
2022/08/17 02:10:32;;;;;;;8.50;5.93;;;;;;;15.41;69.87;93213.50;5090357;28;20016;-64
2022/08/17 02:12:57;;;;;;;6.32;5.40;;;;;;;15.43;69.55;93217.19;5090081;28;20047;-62
2022/08/17 02:15:23;;;;;;;11.68;5.90;;;;;;;15.48;69.91;93218.22;5102985;28;20066;-61
2022/08/17 02:17:48;;;;;;;6.05;5.43;;;;;;;15.51;69.89;93209.41;5110418;28;20075;-61
2022/08/17 02:20:14;;;;;;;6.18;5.25;;;;;;;15.26;70.87;93213.78;5110736;28;20020;-61
2022/08/17 02:22:43;;;;;;;15.88;6.13;;;;;;;15.32;70.87;93214.22;5110659;28;20015;-63
2022/08/17 02:25:11;;;;;;;11.13;6.28;;;;;;;14.88;71.86;93192.22;5110419;28;20020;-62
2022/08/17 02:27:37;;;;;;;6.22;5.43;;;;;;;14.97;72.29;93205.41;5109487;28;20110;-61
2022/08/17 02:30:08;;;;;;;7.15;5.97;;;;;;;15.03;72.37;93211.41;5110292;28;20407;-61
2022/08/17 02:32:33;;;;;;;9.82;5.72;;;;;;;14.96;71.64;93192.84;5110202;28;20016;-62
2022/08/17 02:35:00;;;;;;;8.05;6.15;;;;;;;15.13;71.64;93224.03;5110254;28;20027;-62
2022/08/17 02:37:27;;;;;;;8.10;6.47;;;;;;;15.15;71.47;93226.97;5110586;28;20408;-61
2022/08/17 02:39:55;;;;;;;7.20;6.43;;;;;;;15.18;71.35;93220.22;5112417;28;20024;-61
2022/08/17 02:42:34;;;;;;;11.35;7.15;;;;;;;15.03;72.65;93220.50;5114112;28;20047;-62
2022/08/17 02:45:01;;;;;;;7.47;6.10;;;;;;;14.98;72.81;93223.56;5112871;28;20038;-61
2022/08/17 02:47:26;;;;;;;9.38;6.70;;;;;;;14.98;72.40;93218.75;5114265;27;20053;-61
2022/08/17 02:49:53;;;;;;;9.07;6.45;;;;;;;15.04;71.54;93213.63;5113858;28;20504;-61
2022/08/17 02:52:19;;;;;;;10.73;6.63;;;;;;;14.86;71.60;93195.59;5114080;28;20031;-61
2022/08/17 02:54:44;;;;;;;9.63;6.40;;;;;;;15.16;70.94;93216.56;5114110;27;20027;-62
2022/08/17 02:57:10;;;;;;;7.90;5.68;;;;;;;15.04;71.12;93221.25;5113811;27;20028;-60
2022/08/17 02:59:37;;;;;;;8.05;6.45;;;;;;;14.90;70.97;93223.00;5113837;28;20027;-60
2022/08/17 03:02:03;;;;;;;7.28;6.43;;;;;;;15.03;71.21;93226.06;5097586;28;20024;-64
2022/08/17 03:04:29;;;;;;;8.07;6.60;;;;;;;14.97;70.37;93224.88;5093594;28;20016;-65
2022/08/17 03:06:55;;;;;;;7.43;6.25;;;;;;;15.05;70.33;93231.78;5093193;28;20154;-66
2022/08/17 03:09:20;;;;;;;8.25;6.88;;;;;;;14.92;70.98;93234.25;5109958;28;20114;-63
2022/08/17 03:11:46;;;;;;;12.93;7.10;;;;;;;14.88;70.93;93239.50;5113713;28;20023;-60
2022/08/17 03:14:11;;;;;;;8.23;6.25;;;;;;;14.89;70.60;93232.63;5113127;28;20026;-60
2022/08/17 03:16:37;;;;;;;8.50;6.70;;;;;;;14.86;70.60;93222.66;5113719;28;20024;-60
2022/08/17 03:19:03;;;;;;;7.47;6.32;;;;;;;15.00;70.81;93238.38;5113274;27;20053;-60
2022/08/17 03:21:28;;;;;;;7.00;6.07;;;;;;;14.94;70.81;93237.19;5113367;28;20024;-64
2022/08/17 03:23:53;;;;;;;7.65;6.88;;;;;;;14.86;71.04;93247.69;5113203;28;20069;-65
2022/08/17 03:26:19;;;;;;;11.02;7.45;;;;;;;14.80;71.65;93236.13;5113247;28;20042;-63
2022/08/17 03:28:44;;;;;;;39.40;6.57;;;;;;;14.80;71.33;93244.44;5113198;28;20024;-64
2022/08/17 03:31:10;;;;;;;7.15;6.32;;;;;;;14.76;71.57;93244.88;5113463;28;20116;-63
2022/08/17 03:33:35;;;;;;;7.72;6.32;;;;;;;14.66;71.57;93246.88;5113068;28;20503;-63
2022/08/17 03:36:01;;;;;;;7.60;6.18;;;;;;;14.56;71.47;93248.19;5113289;28;20031;-62
2022/08/17 03:38:26;;;;;;;7.03;5.63;;;;;;;14.51;71.39;93252.69;5113082;28;20554;-62
2022/08/17 03:40:52;;;;;;;6.80;5.60;;;;;;;14.59;71.16;93247.78;5113191;28;20055;-62
2022/08/17 03:43:20;;;;;;;9.30;7.47;;;;;;;14.72;70.92;93250.16;5111716;27;20102;-63
2022/08/17 03:57:04;;;;;;;10.43;6.32;;;;;;;14.55;71.09;93257.84;5109220;28;20087;-63
2022/08/17 03:59:29;;;;;;;9.00;6.35;;;;;;;14.43;70.82;93243.75;5105423;28;20780;-64
2022/08/17 04:01:57;;;;;;;8.52;6.47;;;;;;;14.55;71.05;93257.84;5105876;28;20103;-60
2022/08/17 04:04:23;;;;;;;8.10;6.10;;;;;;;14.49;71.35;93268.50;5099476;28;20053;-61
2022/08/17 04:06:48;;;;;;;9.07;6.22;;;;;;;14.55;71.26;93260.63;5112351;27;20508;-61
2022/08/17 04:09:14;;;;;;;11.77;6.88;;;;;;;14.48;71.32;93267.00;5112348;28;20072;-61
2022/08/17 04:11:40;;;;;;;14.15;8.02;;;;;;;14.41;71.98;93272.13;5102755;28;20035;-61
2022/08/17 04:14:06;;;;;;;15.10;9.75;;;;;;;14.42;71.98;93272.84;5101734;28;20514;-60
2022/08/17 04:16:33;;;;;;;11.25;8.63;;;;;;;14.39;72.18;93257.34;5112130;28;20023;-62
2022/08/17 04:18:58;;;;;;;9.98;8.38;;;;;;;14.50;72.27;93276.25;5108125;28;20032;-63
2022/08/17 04:21:24;;;;;;;10.45;8.43;;;;;;;14.55;72.42;93274.50;5102559;28;20067;-62
2022/08/17 04:23:50;;;;;;;10.20;7.45;;;;;;;14.43;73.09;93272.25;5096266;28;20102;-61
2022/08/17 04:26:15;;;;;;;10.35;7.85;;;;;;;14.54;73.04;93268.22;5111783;28;20514;-62
2022/08/17 04:28:41;;;;;;;9.85;6.82;;;;;;;14.59;72.87;93275.56;5111842;28;20031;-62
2022/08/17 04:31:12;;;;;;;8.73;7.45;;;;;;;14.53;73.85;93275.06;5105018;28;20047;-62
2022/08/17 04:33:42;;;;;;;7.90;7.05;;;;;;;14.62;73.87;93271.59;5105346;28;20088;-61
2022/08/17 04:36:09;;;;;;;11.18;6.28;;;;;;;14.80;73.05;93270.22;5098166;28;20023;-62
2022/08/17 04:38:37;;;;;;;8.85;6.90;;;;;;;14.72;73.62;93277.94;5111484;28;20026;-62
2022/08/17 04:43:49;;;;;;;9.38;7.30;;;;;;;14.86;73.89;93272.69;5090448;28;20034;-64
2022/08/17 04:46:19;;;;;;;8.77;7.05;;;;;;;14.97;73.90;93272.88;5091584;28;20020;-63
2022/08/17 04:48:47;;;;;;;10.18;7.40;;;;;;;15.14;72.96;93274.81;5090753;28;20066;-63
2022/08/17 04:51:20;;;;;;;9.77;7.67;;;;;;;15.22;72.62;93275.44;5089653;28;20032;-65
2022/08/17 04:53:48;;;;;;;10.30;7.05;;;;;;;15.34;72.57;93281.13;5089730;28;20027;-61
2022/08/17 04:56:15;;;;;;;7.57;6.63;;;;;;;15.32;73.15;93275.41;5089862;28;20052;-62
2022/08/17 04:58:45;;;;;;;8.60;7.32;;;;;;;15.24;73.85;93278.34;5089488;28;20616;-61
2022/08/17 05:01:11;;;;;;;11.07;7.28;;;;;;;15.28;74.10;93261.22;5091911;28;20032;-62
2022/08/17 05:03:36;;;;;;;12.38;6.95;;;;;;;15.49;74.08;93284.41;5097055;28;20042;-61
2022/08/17 05:06:02;;;;;;;15.85;9.23;;;;;;;15.47;74.57;93284.25;5098770;28;20072;-60
2022/08/17 05:08:27;;;;;;;15.85;12.02;;;;;;;15.59;74.65;93289.97;5108003;28;20035;-61
2022/08/17 05:10:53;;;;;;;14.88;11.43;;;;;;;15.66;75.00;93286.31;5110696;28;20027;-60
2022/08/17 05:13:22;;;;;;;12.13;8.27;;;;;;;15.80;75.15;93281.78;5107350;28;20454;-61
2022/08/17 05:15:53;;;;;;;10.13;8.30;;;;;;;15.82;75.45;93290.25;5103405;27;20335;-60
2022/08/17 05:18:19;;;;;;;11.43;8.60;;;;;;;15.94;75.54;93291.13;5100038;28;20034;-63
2022/08/17 05:20:45;;;;;;;46.53;43.38;;;;;;;16.03;75.73;93293.16;5098779;28;20020;-63
2022/08/17 05:23:13;;;;;;;9.63;7.22;;;;;;;16.13;75.59;93295.94;5096181;28;20088;-63
2022/08/17 05:25:47;;;;;;;8.43;7.18;;;;;;;16.15;75.97;93288.47;5091151;28;20028;-63
2022/08/17 05:28:13;;;;;;;9.85;6.65;;;;;;;16.26;76.15;93290.66;5087585;28;20265;-63
2022/08/17 05:30:40;;;;;;;9.15;6.88;;;;;;;16.11;76.20;93249.19;5089369;28;20073;-63
2022/08/17 05:33:12;;;;;;;7.78;6.82;;;;;;;16.48;76.48;93289.41;5089617;28;20420;-62
2022/08/17 05:35:41;;;;;;;8.18;6.82;;;;;;;16.57;76.44;93283.09;5089712;28;20032;-62
2022/08/17 05:38:07;;;;;;;15.45;9.82;;;;;;;16.67;76.27;93294.22;5099571;28;20047;-62
2022/08/17 05:40:33;;;;;;;25.13;14.02;;;;;;;16.77;76.73;93296.97;5097992;28;20065;-62
2022/08/17 05:43:08;;;;;;;9.60;8.30;;;;;;;16.90;76.59;93293.69;5098292;28;20027;-62
2022/08/17 05:45:38;;;;;;;18.27;12.52;;;;;;;17.01;76.13;93307.72;5096683;28;20546;-62
2022/08/17 05:48:03;;;;;;;15.38;8.70;;;;;;;17.06;76.30;93292.72;5094821;28;20664;-62
2022/08/17 05:50:35;;;;;;;21.05;13.55;;;;;;;17.18;75.92;93303.97;5096969;28;20034;-62
2022/08/17 05:53:23;;;;;;;9.25;7.97;;;;;;;17.27;74.86;93294.81;5096306;28;20020;-62
2022/08/17 05:55:54;;;;;;;10.77;7.10;;;;;;;17.19;75.84;93299.84;5087171;28;20120;-63
2022/08/17 05:58:37;;;;;;;12.32;7.35;;;;;;;17.33;75.22;93298.72;5088600;28;20065;-62
2022/08/17 06:01:18;;;;;;;10.63;7.70;;;;;;;17.48;75.28;93303.19;5092860;28;20031;-62
2022/08/17 06:04:11;;;;;;;15.65;11.23;;;;;;;17.65;74.00;93293.84;5103082;27;20120;-62
2022/08/17 06:06:39;;;;;;;14.45;10.88;;;;;;;17.73;74.18;93288.78;5110504;28;20035;-62
2022/08/17 06:09:38;;;;;;;12.18;8.35;;;;;;;17.84;74.07;93288.13;5109615;28;20024;-62
2022/08/17 06:12:31;;;;;;;11.88;8.18;;;;;;;18.04;73.95;93292.22;5109096;28;20039;-62
2022/08/17 06:15:09;;;;;;;10.18;8.52;;;;;;;18.30;73.57;93282.69;5102895;28;20043;-62
2022/08/17 06:17:35;;;;;;;12.02;6.57;;;;;;;18.63;72.91;93286.19;5093209;28;20028;-62
2022/08/17 06:20:08;;;;;;;10.90;7.10;;;;;;;19.07;72.72;93284.63;5092787;28;20035;-61
2022/08/17 06:22:41;;;;;;;7.85;5.68;;;;;;;19.67;69.38;93288.22;5092912;28;20439;-60
2022/08/17 06:25:33;;;;;;;8.55;5.22;;;;;;;20.24;66.57;93283.78;5093145;28;20040;-61
2022/08/17 06:28:13;;;;;;;8.57;5.28;;;;;;;20.51;64.22;93286.69;5093402;28;20096;-60
2022/08/17 06:30:57;;;;;;;6.07;4.90;;;;;;;20.59;63.13;93283.59;5113159;28;20028;-61
2022/08/17 06:33:28;;;;;;;9.00;5.70;;;;;;;20.63;62.62;93278.94;5112575;28;20028;-61
2022/08/17 06:36:13;;;;;;;6.07;4.93;;;;;;;20.50;61.69;93282.44;5113905;28;20024;-60
2022/08/17 06:38:57;;;;;;;5.15;4.45;;;;;;;20.59;62.23;93280.81;5113971;28;20023;-60
2022/08/17 06:41:51;;;;;;;6.10;5.00;;;;;;;20.59;62.08;93278.72;5113810;28;20030;-61
2022/08/17 06:44:29;;;;;;;6.13;4.90;;;;;;;20.66;62.51;93274.88;5113715;28;20412;-60
2022/08/17 06:47:07;;;;;;;7.30;5.43;;;;;;;20.69;61.38;93268.03;5112832;28;20103;-60
2022/08/17 06:49:50;;;;;;;6.23;4.40;;;;;;;20.74;61.75;93266.94;5112816;28;20412;-60
2022/08/17 06:52:28;;;;;;;8.48;4.75;;;;;;;21.09;60.71;93275.81;5112245;28;20496;-60
2022/08/17 06:55:00;;;;;;;11.20;7.32;;;;;;;21.28;60.71;93271.16;5113576;28;20019;-60
2022/08/17 06:57:36;;;;;;;9.88;7.43;;;;;;;21.49;60.36;93273.66;5113535;28;20043;-60
2022/08/17 07:00:15;;;;;;;6.10;4.88;;;;;;;21.60;60.34;93279.16;5113932;28;20157;-60
2022/08/17 07:03:19;;;;;;;6.80;4.97;;;;;;;21.64;59.21;93281.44;5108660;28;20130;-60
2022/08/17 07:05:56;;;;;;;10.20;7.28;;;;;;;21.76;58.43;93282.78;5072090;28;20241;-60
2022/08/17 07:08:41;;;;;;;9.27;5.32;;;;;;;21.72;59.20;93281.88;5108651;28;20674;-60
2022/08/17 07:11:14;;;;;;;8.35;4.53;;;;;;;21.89;58.96;93270.09;5093164;28;20110;-60
2022/08/17 07:14:10;;;;;;;7.55;4.43;;;;;;;22.14;59.40;93274.81;5108670;28;20028;-60
2022/08/17 07:16:45;;;;;;;5.30;4.80;;;;;;;22.11;58.55;93276.78;5091524;28;20089;-60
2022/08/17 07:19:13;;;;;;;7.18;4.88;;;;;;;22.11;57.60;93279.59;5091829;28;20023;-60
2022/08/17 07:21:42;;;;;;;10.43;4.80;;;;;;;22.07;58.13;93282.22;5091858;28;20020;-60
2022/08/17 07:24:38;;;;;;;6.57;4.55;;;;;;;22.35;56.70;93280.75;5092597;28;20058;-60
2022/08/17 07:27:15;;;;;;;4.65;4.25;;;;;;;22.39;55.82;93274.63;5090420;28;20055;-60
2022/08/17 07:29:46;;;;;;;10.60;4.13;;;;;;;22.75;55.20;93281.25;5099705;28;20019;-60
2022/08/17 07:32:17;;;;;;;5.40;4.18;;;;;;;23.22;55.01;93277.09;5112738;27;20511;-60
2022/08/17 07:35:30;;;;;;;9.15;4.22;;;;;;;24.39;51.73;93275.72;5111968;28;20024;-60
2022/08/17 07:38:34;;;;;;;5.55;4.18;;;;;;;25.78;48.24;93269.72;5069731;28;20129;-60
2022/08/17 07:41:06;;;;;;;3.65;3.28;;;;;;;27.15;44.76;93271.38;5089884;28;20036;-60
2022/08/17 07:43:35;;;;;;;4.22;3.42;;;;;;;28.58;41.19;93255.44;5072992;28;20099;-61
2022/08/17 07:48:56;;;;;;;6.47;4.13;;;;;;;30.72;36.54;93261.25;5112780;28;20034;-60
2022/08/17 07:51:27;;;;;;;6.82;3.53;;;;;;;31.65;35.24;93268.31;5111246;28;20609;-59
2022/08/17 07:54:00;;;;;;;6.68;3.20;;;;;;;32.06;33.61;93270.25;5112512;28;20027;-59
2022/08/17 07:56:47;;;;;;;4.45;3.03;;;;;;;31.51;34.51;93271.72;5112319;28;20019;-58
2022/08/17 07:59:23;;;;;;;5.25;3.55;;;;;;;31.18;33.99;93272.66;5112391;28;20042;-60
2022/08/17 08:01:57;;;;;;;4.32;3.10;;;;;;;31.34;35.07;93276.44;5098476;28;20073;-58
2022/08/17 08:04:36;;;;;;;8.95;3.60;;;;;;;31.17;35.05;93274.06;5091586;28;20123;-57
2022/08/17 08:07:15;;;;;;;6.30;3.10;;;;;;;31.10;35.46;93278.97;5090858;28;20105;-58
2022/08/17 08:10:03;;;;;;;11.45;7.70;;;;;;;31.24;34.91;93270.63;5092089;28;20020;-58
2022/08/17 08:25:06;;;;;;;33.25;16.35;;;;;;;32.13;32.55;93269.63;5128047;27;21603;-59
2022/08/17 08:27:44;;;;;;;15.52;9.00;;;;;;;31.85;33.85;93268.56;5128339;27;20043;-61
2022/08/17 08:30:31;;;;;;;36.50;20.10;;;;;;;31.50;33.63;93269.56;5126276;28;20031;-61
2022/08/17 08:33:03;;;;;;;13.25;9.68;;;;;;;31.75;33.68;93268.47;5127053;28;20102;-61
2022/08/17 08:35:39;;;;;;;8.60;6.93;;;;;;;31.69;34.27;93262.66;5127023;28;20083;-60
2022/08/17 08:38:13;;;;;;;24.33;15.23;;;;;;;31.67;34.74;93259.78;5126922;28;20034;-61
2022/08/17 08:40:49;;;;;;;23.38;12.68;;;;;;;31.68;34.97;93252.66;5128115;27;20415;-61
2022/08/17 08:43:25;;;;;;;9.90;7.50;;;;;;;31.83;33.42;93259.97;5128080;27;20019;-60
2022/08/17 08:45:59;;;;;;;7.85;4.63;;;;;;;31.75;33.28;93257.03;5126507;28;20031;-60
2022/08/17 08:48:54;;;;;;;10.18;4.90;;;;;;;31.93;33.65;93252.25;5126828;27;20072;-60
2022/08/17 08:51:37;;;;;;;7.95;4.53;;;;;;;32.08;32.92;93256.00;5126904;27;20087;-61
2022/08/17 08:54:33;;;;;;;7.25;4.10;;;;;;;32.28;33.39;93252.63;5116916;28;20496;-60
2022/08/17 08:57:01;;;;;;;4.38;3.20;;;;;;;32.53;31.65;93249.31;5109672;28;20553;-60
2022/08/17 08:59:44;;;;;;;;;;;;;;;32.57;31.02;93252.22;5107496;28;20020;-60
2022/08/17 09:02:29;;;;;;;6.40;4.25;;;;;;;32.75;31.37;93243.78;5107070;28;20289;-61
2022/08/17 09:05:26;;;;;;;6.57;3.63;;;;;;;32.69;30.04;93249.47;5107090;28;20075;-61
2022/08/17 09:08:11;;;;;;;4.78;3.90;;;;;;;33.14;31.02;93244.09;5107028;28;20020;-60
2022/08/17 09:10:55;;;;;;;5.90;3.53;;;;;;;33.39;30.34;93245.69;5107080;28;20092;-60
2022/08/17 09:13:41;;;;;;;4.20;3.80;;;;;;;33.66;28.79;93235.13;5106929;28;20412;-61
2022/08/17 09:16:15;;;;;;;5.40;3.63;;;;;;;33.67;29.85;93240.13;5106559;28;20447;-60
2022/08/17 09:18:43;;;;;;;4.05;3.40;;;;;;;34.33;28.39;93233.88;5105622;28;20034;-61
2022/08/17 09:21:12;;;;;;;4.95;3.00;;;;;;;34.59;27.67;93238.97;5110971;28;20023;-61
2022/08/17 09:23:48;;;;;;;7.88;3.20;;;;;;;35.33;26.69;93236.06;5125419;27;20111;-61
2022/08/17 09:26:24;;;;;;;3.92;3.08;;;;;;;35.92;25.19;93235.91;5112002;28;20060;-60
2022/08/17 09:28:52;;;;;;;6.28;3.72;;;;;;;36.00;25.06;93235.88;5111845;28;20026;-60
2022/08/17 09:31:22;;;;;;;4.57;2.85;;;;;;;36.62;24.75;93241.31;5112155;28;20020;-59
2022/08/17 09:33:50;;;;;;;4.85;3.05;;;;;;;36.74;24.43;93235.47;5112214;28;20016;-63
2022/08/17 09:36:29;;;;;;;2.83;2.50;;;;;;;37.51;23.61;93215.34;5113045;28;20023;-60
2022/08/17 09:39:16;;;;;;;3.42;3.13;;;;;;;37.91;23.32;93237.97;5111953;28;20057;-61
2022/08/17 09:42:09;;;;;;;6.88;3.17;;;;;;;37.78;22.79;93245.31;5111816;28;20600;-61
2022/08/17 09:44:35;;;;;;;6.38;3.50;;;;;;;37.95;23.61;93231.44;5111710;28;20419;-62
2022/08/17 09:47:31;;;;;;;3.15;2.85;;;;;;;38.25;24.08;93233.25;5113085;28;20027;-60
2022/08/17 09:50:12;;;;;;;3.90;2.60;;;;;;;39.13;22.63;93239.88;5110906;28;20039;-61
2022/08/17 09:52:38;;;;;;;4.63;3.13;;;;;;;38.68;21.86;93237.69;5112756;28;20047;-61
2022/08/17 09:55:04;;;;;;;5.78;3.15;;;;;;;38.57;21.50;93235.69;5113124;28;20107;-61
2022/08/17 09:57:54;;;;;;;4.97;3.40;;;;;;;37.88;22.99;93230.78;5111854;28;20016;-60
2022/08/17 10:00:23;;;;;;;4.82;3.70;;;;;;;36.68;23.94;93237.66;5111981;28;20019;-60
2022/08/17 10:03:16;;;;;;;4.40;3.25;;;;;;;35.27;25.27;93235.38;5112831;28;20016;-60
2022/08/17 10:05:51;;;;;;;6.90;4.28;;;;;;;34.49;27.88;93239.66;5112473;28;20032;-60
2022/08/17 10:08:21;;;;;;;6.35;3.85;;;;;;;33.71;27.22;93234.41;5112404;28;20057;-60
2022/08/17 10:10:51;;;;;;;7.05;3.88;;;;;;;34.03;28.33;93228.81;5111956;28;20563;-60
2022/08/17 10:13:22;;;;;;;4.90;3.58;;;;;;;34.91;26.91;93233.25;5109148;28;20027;-60
2022/08/17 10:15:58;;;;;;;3.85;3.17;;;;;;;36.04;26.87;93213.59;5110835;28;20057;-60
2022/08/17 10:18:34;;;;;;;5.00;3.35;;;;;;;37.45;23.60;93226.94;5110354;28;20027;-60
2022/08/17 10:26:39;;;;;;;4.05;3.45;;;;;;;39.09;21.82;93222.59;5101893;28;20035;-62
2022/08/17 10:29:13;;;;;;;4.03;3.30;;;;;;;39.29;21.07;93219.38;5101217;28;20035;-61
2022/08/17 10:32:05;;;;;;;4.15;2.88;;;;;;;39.51;20.65;93221.16;5097285;28;20356;-60
2022/08/17 10:35:07;;;;;;;3.28;2.97;;;;;;;39.60;20.15;93223.16;5090647;28;20032;-61
2022/08/17 10:38:02;;;;;;;3.45;2.80;;;;;;;39.61;19.13;93215.94;5091053;28;20421;-64
2022/08/17 10:40:47;;;;;;;4.22;3.25;;;;;;;39.63;19.75;93204.34;5082323;28;20046;-61
2022/08/17 10:43:30;;;;;;;3.42;3.15;;;;;;;38.62;20.92;93213.94;5090495;28;20024;-61
2022/08/17 10:46:20;;;;;;;4.18;3.38;;;;;;;36.75;23.40;93219.63;5091724;28;20472;-59
2022/08/17 10:49:17;;;;;;;5.38;4.03;;;;;;;35.48;25.13;93226.00;5091273;28;20034;-60
2022/08/17 10:51:51;;;;;;;5.45;4.40;;;;;;;34.39;26.74;93225.31;5091257;28;20020;-59
2022/08/17 10:54:23;;;;;;;5.93;4.05;;;;;;;34.45;26.34;93213.84;5089857;28;20024;-60
2022/08/17 10:56:49;;;;;;;4.22;3.70;;;;;;;35.17;26.80;93207.41;5091409;28;20039;-59
2022/08/17 10:59:33;;;;;;;4.10;3.70;;;;;;;35.73;24.64;93215.16;5090097;28;20107;-60
2022/08/17 11:02:21;;;;;;;4.15;3.70;;;;;;;36.56;24.79;93209.00;5090782;28;20032;-61
2022/08/17 11:05:08;;;;;;;4.10;3.70;;;;;;;36.84;23.80;93206.59;5091444;28;20043;-60
2022/08/17 11:08:00;;;;;;;6.00;3.65;;;;;;;36.11;25.03;93214.28;5091100;28;20109;-60
2022/08/17 11:10:47;;;;;;;13.13;3.60;;;;;;;36.45;25.40;93205.47;5090785;28;20489;-61
2022/08/17 11:13:27;;;;;;;4.05;3.30;;;;;;;36.79;23.27;93199.47;5091004;28;20024;-60
2022/08/17 11:16:09;;;;;;;4.65;3.90;;;;;;;37.06;23.73;93197.06;5090789;28;20055;-60
2022/08/17 11:18:46;;;;;;;3.83;3.35;;;;;;;36.61;23.58;93193.84;5091018;28;20030;-61
2022/08/17 11:21:16;;;;;;;3.85;3.55;;;;;;;36.28;23.86;93190.44;5095502;28;20088;-60
2022/08/17 11:23:44;;;;;;;4.95;3.55;;;;;;;36.64;23.81;93195.28;5109641;28;20043;-60
2022/08/17 11:26:28;;;;;;;3.72;3.25;;;;;;;36.98;23.56;93189.25;5109658;28;20039;-60
2022/08/17 11:28:58;;;;;;;4.35;3.50;;;;;;;36.70;22.99;93189.47;5110798;28;20027;-61
2022/08/17 11:31:25;;;;;;;7.30;3.90;;;;;;;36.28;24.54;93195.47;5109926;28;20019;-59
2022/08/17 11:34:18;;;;;;;3.95;3.53;;;;;;;36.19;24.96;93194.81;5109883;28;20059;-60
2022/08/17 11:52:43;;;;;;;11.35;4.38;;;;;;;30.98;30.93;93263.81;5024959;28;20044;-60
2022/08/17 11:55:12;;;;;;;10.70;4.70;;;;;;;30.10;33.04;93254.44;5008048;28;20048;-60
2022/08/17 11:57:40;;;;;;;4.55;3.80;;;;;;;29.61;35.10;93264.13;5008101;28;20036;-59
2022/08/17 12:00:11;;;;;;;6.35;4.30;;;;;;;29.22;35.54;93269.03;5024467;28;20119;-58
2022/08/17 12:02:43;;;;;;;5.00;4.28;;;;;;;28.61;36.51;93249.13;5008151;28;20034;-59
2022/08/17 12:05:21;;;;;;;7.53;4.25;;;;;;;28.11;36.55;93245.72;4988129;28;20105;-58
2022/08/17 12:08:02;;;;;;;5.45;4.18;;;;;;;27.88;38.02;93257.88;4985264;28;20454;-61
2022/08/17 12:10:33;;;;;;;7.93;4.45;;;;;;;28.07;37.79;93254.13;4982031;28;20023;-58
2022/08/17 12:13:05;;;;;;;5.68;3.35;;;;;;;28.46;36.90;93250.16;4970755;28;20109;-59
2022/08/17 12:15:35;;;;;;;5.28;3.78;;;;;;;29.05;35.70;93247.31;4986143;28;20082;-59
2022/08/17 12:18:00;;;;;;;3.67;3.17;;;;;;;29.38;35.29;93250.88;4980717;28;20165;-59
2022/08/17 12:20:33;;;;;;;3.45;3.00;;;;;;;29.19;35.16;93215.66;4968325;28;20101;-58
2022/08/17 12:23:37;;;;;;;4.75;3.78;;;;;;;29.42;35.25;93248.09;4967485;28;20035;-59
2022/08/17 12:26:10;;;;;;;3.90;3.60;;;;;;;29.79;34.88;93241.78;4976995;28;20035;-60
2022/08/17 12:28:38;;;;;;;5.47;3.70;;;;;;;30.02;34.72;93223.00;4966672;28;20106;-60
2022/08/17 12:31:07;;;;;;;3.90;3.50;;;;;;;30.32;35.74;93232.09;4982719;28;20039;-60
2022/08/17 12:33:35;;;;;;;3.70;2.88;;;;;;;30.51;35.19;93239.53;4982621;28;20043;-59
2022/08/17 12:36:04;;;;;;;4.13;3.83;;;;;;;30.45;34.22;93245.13;4967721;28;20506;-61
2022/08/17 12:38:36;;;;;;;26.67;5.65;;;;;;;30.26;35.44;93235.50;4960726;28;20039;-60
2022/08/17 12:44:00;;;;;;;13.43;3.33;;;;;;;29.80;34.84;93229.69;4948656;29;20095;-60
2022/08/17 12:46:27;;;;;;;5.07;3.60;;;;;;;29.62;36.58;93229.34;4986717;28;20023;-60
2022/08/17 12:48:53;;;;;;;4.72;3.22;;;;;;;29.50;36.74;93217.00;4959448;28;20066;-62
2022/08/17 12:51:19;;;;;;;6.20;4.18;;;;;;;29.37;36.83;93218.84;4954941;28;20043;-62
2022/08/17 12:53:53;;;;;;;9.10;3.65;;;;;;;29.36;36.56;93214.59;4954879;28;20036;-58